Eizo Maru — JD2944 — position and weather

sailwx.info

Track history (hours):
 
Tides and Currents Weather Stations Pressure Air Temp Water Temp Dewpoint Dewpoint Depression Visibility Wind Speed Wind Dir Waves Ship Positions

Eizo Maru

Last reported at 2017-Jun-24 23:19 UTC. Time now 2017-Jun-26 12:16 UTC.
Position N 35°36' E 140°06'.

Length 80 m; draft 4.2 m.

Type: Tanker. MMSI: 431000976.

Date/timePositionNaut miles runAvg speedWind from/ knotsBaromVisibWave heightAir tempDewpointWater temp
2017-Jun-24 23:19N 35°36' E 140°06'4 4.2
2017-Jun-24 22:28N 35°34' E 140°02'2 0.6
2017-Jun-24 19:59N 35°33' E 140°01'0 0.0
2017-Jun-24 15:05N 35°33' E 140°01'0 0.0
2017-Jun-24 14:56N 35°33' E 140°01'0 0.0
2017-Jun-24 08:17N 35°33' E 140°01'0 0.1
2017-Jun-24 07:50N 35°33' E 140°01'0 0.1
2017-Jun-24 07:29N 35°33' E 140°01'0 0.0
2017-Jun-24 06:59N 35°33' E 140°01'0 0.1
2017-Jun-24 06:29N 35°33' E 140°01'0 0.0
2017-Jun-24 05:59N 35°33' E 140°01'0 0.0
2017-Jun-24 05:29N 35°33' E 140°01'0 0.0
2017-Jun-24 04:59N 35°33' E 140°01'0 0.1
2017-Jun-24 04:23N 35°33' E 140°01'0 0.1
2017-Jun-24 03:38N 35°33' E 140°01'0 0.0
2017-Jun-24 03:26N 35°33' E 140°01'0 0.0
2017-Jun-24 02:53N 35°33' E 140°01'0 0.0
2017-Jun-24 02:29N 35°33' E 140°01'0 0.0
2017-Jun-24 00:59N 35°33' E 140°01'0 0.0
2017-Jun-23 21:08N 35°33' E 140°01'0 0.0
2017-Jun-23 20:23N 35°33' E 140°01'3 3.2
2017-Jun-23 19:33N 35°32' E 139°58'112.3
2017-Jun-23 19:30N 35°31' E 139°58'613.1
2017-Jun-23 19:00N 35°28' E 139°51'612.8
2017-Jun-23 18:30N 35°23' E 139°46'611.6
2017-Jun-23 18:00N 35°17' E 139°45'612.4
2017-Jun-23 17:30N 35°11' E 139°46'2 0.1
2017-Jun-22 13:26N 35°13' E 139°46'511.5
2017-Jun-22 13:00N 35°18' E 139°44'612.5
2017-Jun-22 12:30N 35°24' E 139°43'713.3
2017-Jun-22 12:01N 35°28' E 139°49'713.0
2017-Jun-22 11:30N 35°31' E 139°56'5 0.3
2017-Jun-21 19:01N 35°33' E 140°01'0 0.0
2017-Jun-21 18:57N 35°33' E 140°01'0 0.0
2017-Jun-20 18:27N 35°33' E 140°01'0 0.0
2017-Jun-20 17:48N 35°33' E 140°01'0 0.0
2017-Jun-20 17:19N 35°33' E 140°01'0 0.0
2017-Jun-20 16:55N 35°33' E 140°01'0 0.0
2017-Jun-20 16:21N 35°33' E 140°01'0 0.0
2017-Jun-20 15:43N 35°33' E 140°01'0 0.0
2017-Jun-20 15:28N 35°33' E 140°01'0 0.0
2017-Jun-20 15:00N 35°33' E 140°01'5 0.4
2017-Jun-20 03:28N 35°31' E 139°56'510.4
2017-Jun-20 03:00N 35°30' E 139°50'0 0.1
2017-Jun-20 02:28N 35°30' E 139°50'0 0.0
2017-Jun-20 01:58N 35°30' E 139°50'0 0.0
2017-Jun-20 01:28N 35°30' E 139°50'0 0.0
2017-Jun-20 00:58N 35°30' E 139°50'0 0.1
2017-Jun-20 00:26N 35°30' E 139°50'3 7.5
2017-Jun-20 00:00N 35°30' E 139°46'0 0.0
2017-Jun-17 23:54N 35°30' E 139°46'2 4.6
2017-Jun-17 23:30N 35°30' E 139°48'2 3.6
2017-Jun-17 23:00N 35°31' E 139°50'0 0.0
2017-Jun-17 22:30N 35°31' E 139°50'0 0.0
2017-Jun-17 22:00N 35°31' E 139°50'0 0.0
2017-Jun-17 21:30N 35°31' E 139°50'0 0.0
2017-Jun-17 21:00N 35°31' E 139°50'0 0.0
2017-Jun-17 20:27N 35°31' E 139°50'0 0.0
2017-Jun-17 20:00N 35°31' E 139°50'0 0.0
2017-Jun-17 19:30N 35°31' E 139°50'0 0.0
2017-Jun-17 19:00N 35°31' E 139°50'0 0.0
2017-Jun-17 18:30N 35°31' E 139°50'0 0.0
2017-Jun-17 18:00N 35°31' E 139°50'0 0.0
2017-Jun-17 17:30N 35°31' E 139°50'0 0.0
2017-Jun-17 17:00N 35°31' E 139°50'0 0.0
2017-Jun-17 16:27N 35°31' E 139°50'0 0.0
2017-Jun-17 16:00N 35°31' E 139°50'0 0.0
2017-Jun-17 15:30N 35°31' E 139°50'0 0.0
2017-Jun-17 15:00N 35°31' E 139°50'0 0.0
2017-Jun-17 13:18N 35°31' E 139°50'0 0.0
2017-Jun-17 12:42N 35°31' E 139°50'0 0.0
2017-Jun-17 12:27N 35°31' E 139°50'0 0.1
2017-Jun-17 11:57N 35°31' E 139°50'3 6.3
2017-Jun-17 11:30N 35°31' E 139°54'2 0.4
2017-Jun-17 07:16N 35°31' E 139°56'312.9
2017-Jun-17 07:00N 35°31' E 139°52'5 9.4
2017-Jun-17 06:31N 35°31' E 139°46'0 0.0
2017-Jun-16 21:59N 35°31' E 139°46'1 2.6
2017-Jun-16 21:28N 35°30' E 139°47'2 3.4
2017-Jun-16 20:58N 35°29' E 139°48'0 0.0
2017-Jun-16 20:28N 35°29' E 139°48'0 0.0
2017-Jun-16 19:58N 35°29' E 139°48'0 0.0
2017-Jun-16 19:28N 35°29' E 139°48'0 0.0
2017-Jun-16 18:58N 35°29' E 139°48'0 0.0
2017-Jun-16 18:28N 35°29' E 139°48'0 0.0
2017-Jun-16 17:58N 35°29' E 139°48'0 0.0
2017-Jun-16 17:25N 35°29' E 139°48'0 0.0
2017-Jun-16 16:58N 35°29' E 139°48'0 0.0
2017-Jun-16 16:28N 35°29' E 139°48'0 0.0
2017-Jun-16 15:58N 35°29' E 139°48'0 0.0
2017-Jun-16 15:28N 35°29' E 139°48'0 0.0
2017-Jun-16 14:58N 35°29' E 139°48'0 0.0
2017-Jun-16 14:28N 35°29' E 139°48'0 0.0
2017-Jun-16 13:28N 35°29' E 139°48'0 0.0
2017-Jun-16 12:58N 35°29' E 139°48'0 0.6
2017-Jun-16 12:30N 35°28' E 139°48'612.4
2017-Jun-16 12:00N 35°22' E 139°45'611.3
2017-Jun-16 11:30N 35°17' E 139°46'612.5
2017-Jun-16 11:00N 35°11' E 139°47'  
Track history (hours):
 
Tides and Currents Weather Stations Pressure Air Temp Water Temp Dewpoint Dewpoint Depression Visibility Wind Speed Wind Dir Waves Ship Positions

Eizo Maru

Last reported at 2017-Jun-24 23:19 UTC. Time now 2017-Jun-26 12:16 UTC.
Position N 35°36' E 140°06'.

Length 80 m; draft 4.2 m.

Type: Tanker. MMSI: 431000976.

Date/timePositionNaut miles runAvg speedWind from/ knotsBaromVisibWave heightAir tempDewpointWater temp
2017-Jun-24 23:19N 35°36' E 140°06'4 4.2
2017-Jun-24 22:28N 35°34' E 140°02'2 0.6
2017-Jun-24 19:59N 35°33' E 140°01'0 0.0
2017-Jun-24 15:05N 35°33' E 140°01'0 0.0
2017-Jun-24 14:56N 35°33' E 140°01'0 0.0
2017-Jun-24 08:17N 35°33' E 140°01'0 0.1
2017-Jun-24 07:50N 35°33' E 140°01'0 0.1
2017-Jun-24 07:29N 35°33' E 140°01'0 0.0
2017-Jun-24 06:59N 35°33' E 140°01'0 0.1
2017-Jun-24 06:29N 35°33' E 140°01'0 0.0
2017-Jun-24 05:59N 35°33' E 140°01'0 0.0
2017-Jun-24 05:29N 35°33' E 140°01'0 0.0
2017-Jun-24 04:59N 35°33' E 140°01'0 0.1
2017-Jun-24 04:23N 35°33' E 140°01'0 0.1
2017-Jun-24 03:38N 35°33' E 140°01'0 0.0
2017-Jun-24 03:26N 35°33' E 140°01'0 0.0
2017-Jun-24 02:53N 35°33' E 140°01'0 0.0
2017-Jun-24 02:29N 35°33' E 140°01'0 0.0
2017-Jun-24 00:59N 35°33' E 140°01'0 0.0
2017-Jun-23 21:08N 35°33' E 140°01'0 0.0
2017-Jun-23 20:23N 35°33' E 140°01'3 3.2
2017-Jun-23 19:33N 35°32' E 139°58'112.3
2017-Jun-23 19:30N 35°31' E 139°58'613.1
2017-Jun-23 19:00N 35°28' E 139°51'612.8
2017-Jun-23 18:30N 35°23' E 139°46'611.6
2017-Jun-23 18:00N 35°17' E 139°45'612.4
2017-Jun-23 17:30N 35°11' E 139°46'2 0.1
2017-Jun-22 13:26N 35°13' E 139°46'511.5
2017-Jun-22 13:00N 35°18' E 139°44'612.5
2017-Jun-22 12:30N 35°24' E 139°43'713.3
2017-Jun-22 12:01N 35°28' E 139°49'713.0
2017-Jun-22 11:30N 35°31' E 139°56'5 0.3
2017-Jun-21 19:01N 35°33' E 140°01'0 0.0
2017-Jun-21 18:57N 35°33' E 140°01'0 0.0
2017-Jun-20 18:27N 35°33' E 140°01'0 0.0
2017-Jun-20 17:48N 35°33' E 140°01'0 0.0
2017-Jun-20 17:19N 35°33' E 140°01'0 0.0
2017-Jun-20 16:55N 35°33' E 140°01'0 0.0
2017-Jun-20 16:21N 35°33' E 140°01'0 0.0
2017-Jun-20 15:43N 35°33' E 140°01'0 0.0
2017-Jun-20 15:28N 35°33' E 140°01'0 0.0
2017-Jun-20 15:00N 35°33' E 140°01'5 0.4
2017-Jun-20 03:28N 35°31' E 139°56'510.4
2017-Jun-20 03:00N 35°30' E 139°50'0 0.1
2017-Jun-20 02:28N 35°30' E 139°50'0 0.0
2017-Jun-20 01:58N 35°30' E 139°50'0 0.0
2017-Jun-20 01:28N 35°30' E 139°50'0 0.0
2017-Jun-20 00:58N 35°30' E 139°50'0 0.1
2017-Jun-20 00:26N 35°30' E 139°50'3 7.5
2017-Jun-20 00:00N 35°30' E 139°46'0 0.0
2017-Jun-17 23:54N 35°30' E 139°46'2 4.6
2017-Jun-17 23:30N 35°30' E 139°48'2 3.6
2017-Jun-17 23:00N 35°31' E 139°50'0 0.0
2017-Jun-17 22:30N 35°31' E 139°50'0 0.0
2017-Jun-17 22:00N 35°31' E 139°50'0 0.0
2017-Jun-17 21:30N 35°31' E 139°50'0 0.0
2017-Jun-17 21:00N 35°31' E 139°50'0 0.0
2017-Jun-17 20:27N 35°31' E 139°50'0 0.0
2017-Jun-17 20:00N 35°31' E 139°50'0 0.0
2017-Jun-17 19:30N 35°31' E 139°50'0 0.0
2017-Jun-17 19:00N 35°31' E 139°50'0 0.0
2017-Jun-17 18:30N 35°31' E 139°50'0 0.0
2017-Jun-17 18:00N 35°31' E 139°50'0 0.0
2017-Jun-17 17:30N 35°31' E 139°50'0 0.0
2017-Jun-17 17:00N 35°31' E 139°50'0 0.0
2017-Jun-17 16:27N 35°31' E 139°50'0 0.0
2017-Jun-17 16:00N 35°31' E 139°50'0 0.0
2017-Jun-17 15:30N 35°31' E 139°50'0 0.0
2017-Jun-17 15:00N 35°31' E 139°50'0 0.0
2017-Jun-17 13:18N 35°31' E 139°50'0 0.0
2017-Jun-17 12:42N 35°31' E 139°50'0 0.0
2017-Jun-17 12:27N 35°31' E 139°50'0 0.1
2017-Jun-17 11:57N 35°31' E 139°50'3 6.3
2017-Jun-17 11:30N 35°31' E 139°54'2 0.4
2017-Jun-17 07:16N 35°31' E 139°56'312.9
2017-Jun-17 07:00N 35°31' E 139°52'5 9.4
2017-Jun-17 06:31N 35°31' E 139°46'0 0.0
2017-Jun-16 21:59N 35°31' E 139°46'1 2.6
2017-Jun-16 21:28N 35°30' E 139°47'2 3.4
2017-Jun-16 20:58N 35°29' E 139°48'0 0.0
2017-Jun-16 20:28N 35°29' E 139°48'0 0.0
2017-Jun-16 19:58N 35°29' E 139°48'0 0.0
2017-Jun-16 19:28N 35°29' E 139°48'0 0.0
2017-Jun-16 18:58N 35°29' E 139°48'0 0.0
2017-Jun-16 18:28N 35°29' E 139°48'0 0.0
2017-Jun-16 17:58N 35°29' E 139°48'0 0.0
2017-Jun-16 17:25N 35°29' E 139°48'0 0.0
2017-Jun-16 16:58N 35°29' E 139°48'0 0.0
2017-Jun-16 16:28N 35°29' E 139°48'0 0.0
2017-Jun-16 15:58N 35°29' E 139°48'0 0.0
2017-Jun-16 15:28N 35°29' E 139°48'0 0.0
2017-Jun-16 14:58N 35°29' E 139°48'0 0.0
2017-Jun-16 14:28N 35°29' E 139°48'0 0.0
2017-Jun-16 13:28N 35°29' E 139°48'0 0.0
2017-Jun-16 12:58N 35°29' E 139°48'0 0.6
2017-Jun-16 12:30N 35°28' E 139°48'612.4
2017-Jun-16 12:00N 35°22' E 139°45'611.3
2017-Jun-16 11:30N 35°17' E 139°46'612.5
2017-Jun-16 11:00N 35°11' E 139°47'  

Dump ship's entire track history